createdAt,value
2023-04-18T00:04:26.771Z,8.79
2023-04-18T00:09:29.257Z,9.21
2023-04-18T00:14:31.719Z,9.82
2023-04-18T00:19:34.461Z,9.74
2023-04-18T00:24:36.875Z,9.53
2023-04-18T00:29:40.683Z,9.00
2023-04-18T00:34:43.077Z,8.69
2023-04-18T00:39:45.472Z,8.62
2023-04-18T00:44:48.228Z,8.26
2023-04-18T00:49:50.699Z,9.07
2023-04-18T00:54:53.330Z,8.47
2023-04-18T00:59:55.983Z,8.90
2023-04-18T01:05:00.940Z,8.30
2023-04-18T01:10:04.438Z,8.39
2023-04-18T01:15:08.187Z,9.46
2023-04-18T01:20:12.597Z,8.28
2023-04-18T01:25:15.873Z,8.39
2023-04-18T01:30:18.261Z,9.22
2023-04-18T01:35:20.610Z,9.10
2023-04-18T01:40:23.096Z,7.89
2023-04-18T01:45:25.685Z,7.58
2023-04-18T01:50:28.135Z,7.32
2023-04-18T01:55:30.665Z,7.59
2023-04-18T02:00:33.143Z,7.79
2023-04-18T02:05:37.797Z,8.75
2023-04-18T02:10:42.882Z,8.35
2023-04-18T02:15:46.067Z,7.38
2023-04-18T02:20:51.614Z,6.93
2023-04-18T02:25:53.981Z,7.23
2023-04-18T02:30:56.360Z,6.85
2023-04-18T02:35:58.566Z,8.45
2023-04-18T02:41:00.981Z,7.98
2023-04-18T02:46:03.391Z,6.73
2023-04-18T02:51:07.822Z,6.92
2023-04-18T02:56:14.891Z,7.51
2023-04-18T03:01:35.928Z,6.97
2023-04-18T03:06:44.828Z,7.05
2023-04-18T03:11:47.346Z,6.75
2023-04-18T03:16:54.593Z,6.78
2023-04-18T03:22:01.269Z,6.27
2023-04-18T03:27:04.415Z,6.61
2023-04-18T03:32:06.930Z,6.39
2023-04-18T03:37:09.465Z,6.34
2023-04-18T03:42:17.620Z,7.10
2023-04-18T03:47:20.639Z,7.04
2023-04-18T03:52:29.918Z,7.42
2023-04-18T03:57:32.651Z,7.78
2023-04-18T04:02:36.195Z,8.25
2023-04-18T04:07:38.731Z,8.18
2023-04-18T04:12:42.164Z,8.21
2023-04-18T04:17:44.812Z,7.85
2023-04-18T04:22:47.612Z,7.71
2023-04-18T04:27:53.839Z,7.71
2023-04-18T04:32:57.651Z,8.05
2023-04-18T04:38:01.760Z,8.17
2023-04-18T04:43:15.720Z,8.09
2023-04-18T04:48:21.979Z,8.42
2023-04-18T04:53:32.113Z,8.09
2023-04-18T04:58:36.978Z,8.12
2023-04-18T05:03:45.386Z,7.71
2023-04-18T05:08:51.605Z,7.74
2023-04-18T05:13:53.936Z,8.35
2023-04-18T05:18:56.187Z,8.23
2023-04-18T05:23:58.466Z,8.67
2023-04-18T05:29:00.995Z,8.90
2023-04-18T05:34:03.273Z,8.52
2023-04-18T05:39:05.542Z,8.75
2023-04-18T05:44:08.066Z,8.86
2023-04-18T05:49:10.424Z,8.75
2023-04-18T05:54:13.640Z,9.15
2023-04-18T05:59:16.179Z,8.71
2023-04-18T06:04:19.432Z,9.36
2023-04-18T06:09:21.994Z,9.36
2023-04-18T06:14:24.572Z,9.30
2023-04-18T06:19:26.867Z,9.33
2023-04-18T06:24:31.224Z,9.39
2023-04-18T06:29:35.592Z,9.06
2023-04-18T06:34:38.541Z,9.19
2023-04-18T06:39:40.841Z,8.77
2023-04-18T06:44:43.388Z,9.33
2023-04-18T06:49:45.698Z,8.97
2023-04-18T06:54:47.986Z,9.15
2023-04-18T06:59:50.287Z,9.10
2023-04-18T07:04:52.576Z,9.23
2023-04-18T07:09:55.169Z,9.76
2023-04-18T07:14:57.427Z,9.70
2023-04-18T07:20:00.888Z,9.79
2023-04-18T07:25:03.201Z,9.54
2023-04-18T07:30:06.442Z,9.75
2023-04-18T07:35:09.259Z,10.10
2023-04-18T07:40:12.326Z,9.93
2023-04-18T07:45:15.672Z,10.65
2023-04-18T07:50:18.132Z,10.59
2023-04-18T07:55:20.749Z,10.31
2023-04-18T08:00:23.111Z,10.69
2023-04-18T08:05:25.540Z,10.30
2023-04-18T08:10:28.006Z,10.79
2023-04-18T08:15:32.876Z,10.06
2023-04-18T08:20:37.257Z,11.17
2023-04-18T08:25:39.711Z,10.84
2023-04-18T08:30:42.814Z,10.51
2023-04-18T08:35:45.064Z,10.97
2023-04-18T08:40:48.125Z,10.39
2023-04-18T08:45:50.831Z,11.19
2023-04-18T08:50:58.714Z,11.91
2023-04-18T08:56:01.563Z,10.91
2023-04-18T09:01:04.028Z,10.81
2023-04-18T09:06:12.738Z,11.33
2023-04-18T09:11:42.630Z,11.05
2023-04-18T09:16:48.057Z,11.14
2023-04-18T09:22:01.012Z,11.77
2023-04-18T09:27:04.422Z,11.68
2023-04-18T09:32:07.114Z,11.08
2023-04-18T09:37:12.578Z,11.19
2023-04-18T09:42:14.844Z,11.10
2023-04-18T09:47:16.953Z,11.55
2023-04-18T09:52:21.242Z,11.22
2023-04-18T09:57:28.780Z,11.57
2023-04-18T10:02:45.248Z,11.24
2023-04-18T10:07:49.956Z,10.79
2023-04-18T10:12:56.563Z,11.27
2023-04-18T10:18:11.127Z,11.06
2023-04-18T10:23:40.628Z,11.64
2023-04-18T10:28:59.614Z,11.39
2023-04-18T10:34:06.319Z,11.38
2023-04-18T10:39:25.702Z,12.02
2023-04-18T10:44:28.186Z,11.80
2023-04-18T10:49:34.088Z,11.53
2023-04-18T10:54:55.187Z,11.48
2023-04-18T10:59:58.524Z,11.62
2023-04-18T11:05:04.586Z,11.53
2023-04-18T11:10:09.579Z,12.30
2023-04-18T11:15:23.774Z,12.47
2023-04-18T11:20:26.775Z,11.79
2023-04-18T11:25:37.095Z,12.54
2023-04-18T11:30:41.288Z,12.29
2023-04-18T11:35:47.392Z,12.57
2023-04-18T11:40:50.709Z,11.87
2023-04-18T11:46:00.710Z,12.95
2023-04-18T11:51:03.119Z,12.34
2023-04-18T11:56:06.515Z,13.62
2023-04-18T12:01:20.661Z,13.68
2023-04-18T12:06:23.248Z,13.19
2023-04-18T12:11:25.700Z,12.63
2023-04-18T12:16:28.475Z,12.82
2023-04-18T12:21:33.215Z,13.76
2023-04-18T12:26:44.887Z,14.29
2023-04-18T12:31:48.246Z,14.43
2023-04-18T12:36:50.717Z,13.89
2023-04-18T12:41:53.026Z,13.88
2023-04-18T12:46:55.562Z,14.18
2023-04-18T12:51:57.971Z,13.63
2023-04-18T12:57:01.637Z,13.55
2023-04-18T13:02:04.150Z,14.17
2023-04-18T13:07:06.547Z,13.65
2023-04-18T13:12:08.762Z,14.94
2023-04-18T13:17:11.081Z,15.05
2023-04-18T13:22:13.450Z,14.06
2023-04-18T13:27:15.969Z,15.06
2023-04-18T13:32:18.427Z,14.60
2023-04-18T13:37:20.948Z,15.37
2023-04-18T13:42:23.234Z,14.27
2023-04-18T13:47:25.944Z,15.33
2023-04-18T13:52:28.337Z,15.05
2023-04-18T13:57:32.402Z,15.70
2023-04-18T14:02:34.900Z,15.73
2023-04-18T14:07:38.565Z,16.01
2023-04-18T14:12:41.080Z,16.49
2023-04-18T14:17:44.849Z,15.66
2023-04-18T14:22:52.861Z,15.87
2023-04-18T14:28:08.866Z,16.81
2023-04-18T14:33:11.387Z,16.59
2023-04-18T14:38:13.688Z,15.78
2023-04-18T14:43:16.167Z,16.18
2023-04-18T14:48:18.371Z,16.37
2023-04-18T14:53:21.426Z,17.06
2023-04-18T14:58:23.849Z,16.26
2023-04-18T15:03:26.174Z,16.78
2023-04-18T15:08:28.730Z,17.41
2023-04-18T15:13:31.462Z,16.95
2023-04-18T15:18:33.777Z,16.62
2023-04-18T15:23:36.026Z,16.80
2023-04-18T15:28:38.328Z,16.95
2023-04-18T15:33:40.601Z,16.07
2023-04-18T15:38:42.931Z,16.57
2023-04-18T15:43:45.574Z,17.54
2023-04-18T15:48:47.709Z,16.43
2023-04-18T15:53:49.997Z,17.53
2023-04-18T15:58:52.233Z,17.46
2023-04-18T16:03:54.498Z,17.57
2023-04-18T16:08:56.903Z,17.45
2023-04-18T16:13:59.002Z,17.74
2023-04-18T16:19:01.604Z,17.39
2023-04-18T16:24:03.840Z,18.07
2023-04-18T16:29:06.359Z,16.97
2023-04-18T16:34:09.571Z,17.36
2023-04-18T16:39:12.815Z,17.00
2023-04-18T16:44:15.284Z,16.42
2023-04-18T16:49:17.867Z,16.51
2023-04-18T16:54:19.991Z,16.21
2023-04-18T16:59:22.346Z,15.89
2023-04-18T17:04:27.089Z,15.95
2023-04-18T17:09:30.143Z,16.41
2023-04-18T17:14:32.386Z,16.19
2023-04-18T17:19:34.605Z,16.44
2023-04-18T17:24:36.728Z,15.85
2023-04-18T17:29:38.911Z,15.92
2023-04-18T17:34:41.107Z,15.83
2023-04-18T17:39:44.557Z,16.51
2023-04-18T17:44:46.797Z,15.98
2023-04-18T17:49:49.217Z,16.42
2023-04-18T17:54:51.697Z,16.32
2023-04-18T17:59:54.356Z,15.81
2023-04-18T18:04:56.628Z,15.77
2023-04-18T18:09:58.892Z,15.18
2023-04-18T18:15:01.196Z,14.94
2023-04-18T18:20:10.699Z,14.53
2023-04-18T18:25:13.085Z,14.39
2023-04-18T18:30:15.585Z,14.34
2023-04-18T18:35:18.002Z,14.48
2023-04-18T18:40:20.520Z,14.78
2023-04-18T18:45:23.051Z,14.53
2023-04-18T18:50:25.214Z,13.86
2023-04-18T18:55:27.727Z,13.80
2023-04-18T19:00:30.088Z,13.58
2023-04-18T19:05:32.361Z,13.52
2023-04-18T19:10:34.798Z,13.99
2023-04-18T19:15:37.257Z,12.81
2023-04-18T19:20:40.453Z,12.46
2023-04-18T19:25:42.830Z,12.59
2023-04-18T19:30:46.547Z,12.21
2023-04-18T19:35:48.809Z,12.65
2023-04-18T19:40:51.187Z,11.65
2023-04-18T19:45:55.262Z,11.91
2023-04-18T19:50:57.862Z,12.09
2023-04-18T19:56:00.002Z,12.51
2023-04-18T20:01:02.832Z,12.08
2023-04-18T20:06:06.370Z,11.57
2023-04-18T20:11:10.698Z,11.03
2023-04-18T20:16:12.963Z,11.12
2023-04-18T20:21:15.701Z,11.87
2023-04-18T20:26:17.992Z,10.91
2023-04-18T20:31:20.410Z,11.11
2023-04-18T20:36:23.741Z,10.73
2023-04-18T20:41:27.207Z,10.64
2023-04-18T20:46:29.569Z,11.03
2023-04-18T20:51:31.992Z,10.54
2023-04-18T20:56:36.043Z,10.80
2023-04-18T21:01:38.193Z,11.20
2023-04-18T21:06:40.446Z,10.54
2023-04-18T21:11:42.835Z,10.16
2023-04-18T21:16:45.102Z,10.85
2023-04-18T21:21:47.376Z,10.89
2023-04-18T21:26:49.526Z,10.47
2023-04-18T21:31:51.793Z,10.46
2023-04-18T21:36:54.230Z,10.40
2023-04-18T21:41:57.305Z,9.61
2023-04-18T21:46:59.561Z,8.84
2023-04-18T21:52:01.783Z,9.34
2023-04-18T21:57:05.902Z,9.50
2023-04-18T22:02:08.373Z,9.35
2023-04-18T22:07:12.531Z,9.44
2023-04-18T22:12:15.807Z,9.20
2023-04-18T22:17:17.948Z,8.76
2023-04-18T22:22:20.248Z,9.10
2023-04-18T22:27:22.550Z,9.38
2023-04-18T22:32:24.891Z,8.92
2023-04-18T22:37:27.161Z,9.33
2023-04-18T22:42:30.021Z,9.99
2023-04-18T22:47:32.751Z,10.05
2023-04-18T22:52:35.123Z,8.86
2023-04-18T22:57:38.981Z,9.59
2023-04-18T23:02:41.686Z,8.76
2023-04-18T23:07:44.243Z,9.35
2023-04-18T23:12:46.591Z,9.54
2023-04-18T23:17:51.301Z,9.07
2023-04-18T23:22:55.292Z,9.26
2023-04-18T23:27:57.521Z,9.23
2023-04-18T23:32:59.872Z,9.01
2023-04-18T23:38:02.353Z,8.98
2023-04-18T23:43:04.680Z,9.19
2023-04-18T23:48:07.113Z,9.01
2023-04-18T23:53:09.437Z,8.38
2023-04-18T23:58:11.815Z,8.76
